sensor_id;sensor_type;location;lat;lon;timestamp;P1;durP1;ratioP1;P2;durP2;ratioP2
86331;SDS011;76986;40.846;14.254;2024-03-08T00:02:00;34.47;;;23.30;;
86331;SDS011;76986;40.846;14.254;2024-03-08T00:04:26;32.88;;;22.33;;
86331;SDS011;76986;40.846;14.254;2024-03-08T00:06:52;31.75;;;22.13;;
86331;SDS011;76986;40.846;14.254;2024-03-08T00:09:18;33.30;;;21.70;;
86331;SDS011;76986;40.846;14.254;2024-03-08T00:11:44;35.13;;;22.27;;
86331;SDS011;76986;40.846;14.254;2024-03-08T00:14:10;28.55;;;21.30;;
86331;SDS011;76986;40.846;14.254;2024-03-08T00:16:36;27.00;;;20.27;;
86331;SDS011;76986;40.846;14.254;2024-03-08T00:19:02;30.83;;;21.98;;
86331;SDS011;76986;40.846;14.254;2024-03-08T00:21:28;29.25;;;19.85;;
86331;SDS011;76986;40.846;14.254;2024-03-08T00:23:54;34.67;;;21.70;;
86331;SDS011;76986;40.846;14.254;2024-03-08T00:26:20;30.55;;;19.83;;
86331;SDS011;76986;40.846;14.254;2024-03-08T00:28:49;31.35;;;21.92;;
86331;SDS011;76986;40.846;14.254;2024-03-08T00:31:15;28.17;;;20.23;;
86331;SDS011;76986;40.846;14.254;2024-03-08T00:33:42;30.30;;;20.27;;
86331;SDS011;76986;40.846;14.254;2024-03-08T00:36:08;28.13;;;19.45;;
86331;SDS011;76986;40.846;14.254;2024-03-08T00:38:34;28.27;;;21.02;;
86331;SDS011;76986;40.846;14.254;2024-03-08T00:41:00;31.88;;;20.77;;
86331;SDS011;76986;40.846;14.254;2024-03-08T00:43:27;31.15;;;19.75;;
86331;SDS011;76986;40.846;14.254;2024-03-08T00:45:55;28.65;;;20.30;;
86331;SDS011;76986;40.846;14.254;2024-03-08T00:48:22;26.65;;;19.30;;
86331;SDS011;76986;40.846;14.254;2024-03-08T00:50:48;23.85;;;18.00;;
86331;SDS011;76986;40.846;14.254;2024-03-08T00:53:14;24.55;;;18.20;;
86331;SDS011;76986;40.846;14.254;2024-03-08T00:55:41;25.35;;;18.77;;
86331;SDS011;76986;40.846;14.254;2024-03-08T00:58:08;25.10;;;17.20;;
86331;SDS011;76986;40.846;14.254;2024-03-08T01:00:34;24.30;;;16.73;;
86331;SDS011;76986;40.846;14.254;2024-03-08T01:03:00;24.85;;;16.02;;
86331;SDS011;76986;40.846;14.254;2024-03-08T01:05:28;19.08;;;13.70;;
86331;SDS011;76986;40.846;14.254;2024-03-08T01:07:54;25.50;;;17.60;;
86331;SDS011;76986;40.846;14.254;2024-03-08T01:10:20;24.02;;;15.68;;
86331;SDS011;76986;40.846;14.254;2024-03-08T01:12:46;22.15;;;15.23;;
86331;SDS011;76986;40.846;14.254;2024-03-08T01:15:12;22.35;;;14.85;;
86331;SDS011;76986;40.846;14.254;2024-03-08T01:17:38;24.40;;;15.85;;
86331;SDS011;76986;40.846;14.254;2024-03-08T01:20:05;21.02;;;15.93;;
86331;SDS011;76986;40.846;14.254;2024-03-08T01:22:31;20.67;;;14.07;;
86331;SDS011;76986;40.846;14.254;2024-03-08T01:24:57;21.13;;;15.48;;
86331;SDS011;76986;40.846;14.254;2024-03-08T01:27:23;23.55;;;15.88;;
86331;SDS011;76986;40.846;14.254;2024-03-08T01:29:50;20.55;;;13.98;;
86331;SDS011;76986;40.846;14.254;2024-03-08T01:32:16;20.23;;;14.38;;
86331;SDS011;76986;40.846;14.254;2024-03-08T01:34:42;15.70;;;11.55;;
86331;SDS011;76986;40.846;14.254;2024-03-08T01:37:10;16.48;;;11.68;;
86331;SDS011;76986;40.846;14.254;2024-03-08T01:39:36;19.27;;;12.13;;
86331;SDS011;76986;40.846;14.254;2024-03-08T01:42:02;15.73;;;11.40;;
86331;SDS011;76986;40.846;14.254;2024-03-08T01:44:29;15.85;;;10.43;;
86331;SDS011;76986;40.846;14.254;2024-03-08T01:46:55;16.13;;;11.70;;
86331;SDS011;76986;40.846;14.254;2024-03-08T01:49:21;14.10;;;10.73;;
86331;SDS011;76986;40.846;14.254;2024-03-08T01:51:48;21.67;;;13.85;;
86331;SDS011;76986;40.846;14.254;2024-03-08T01:54:16;18.98;;;13.07;;
86331;SDS011;76986;40.846;14.254;2024-03-08T01:56:42;26.20;;;14.52;;
86331;SDS011;76986;40.846;14.254;2024-03-08T01:59:08;20.60;;;14.25;;
86331;SDS011;76986;40.846;14.254;2024-03-08T02:01:34;17.75;;;11.88;;
86331;SDS011;76986;40.846;14.254;2024-03-08T02:04:00;19.05;;;13.15;;
86331;SDS011;76986;40.846;14.254;2024-03-08T02:06:26;15.82;;;12.60;;
86331;SDS011;76986;40.846;14.254;2024-03-08T02:08:53;17.58;;;13.38;;
86331;SDS011;76986;40.846;14.254;2024-03-08T02:11:19;17.65;;;13.13;;
86331;SDS011;76986;40.846;14.254;2024-03-08T02:13:45;22.83;;;13.88;;
86331;SDS011;76986;40.846;14.254;2024-03-08T02:16:12;18.15;;;12.98;;
86331;SDS011;76986;40.846;14.254;2024-03-08T02:18:38;18.23;;;13.68;;
86331;SDS011;76986;40.846;14.254;2024-03-08T02:21:05;21.65;;;13.25;;
86331;SDS011;76986;40.846;14.254;2024-03-08T02:23:31;19.45;;;14.45;;
86331;SDS011;76986;40.846;14.254;2024-03-08T02:25:58;21.98;;;13.95;;
86331;SDS011;76986;40.846;14.254;2024-03-08T02:28:24;17.45;;;12.50;;
86331;SDS011;76986;40.846;14.254;2024-03-08T02:30:51;16.92;;;13.38;;
86331;SDS011;76986;40.846;14.254;2024-03-08T02:33:21;19.42;;;13.95;;
86331;SDS011;76986;40.846;14.254;2024-03-08T02:35:47;19.15;;;13.77;;
86331;SDS011;76986;40.846;14.254;2024-03-08T02:38:14;22.90;;;14.95;;
86331;SDS011;76986;40.846;14.254;2024-03-08T02:40:41;26.20;;;15.50;;
86331;SDS011;76986;40.846;14.254;2024-03-08T02:43:08;22.52;;;15.15;;
86331;SDS011;76986;40.846;14.254;2024-03-08T02:45:34;20.13;;;14.93;;
86331;SDS011;76986;40.846;14.254;2024-03-08T02:48:00;23.10;;;16.77;;
86331;SDS011;76986;40.846;14.254;2024-03-08T02:50:26;23.80;;;16.20;;
86331;SDS011;76986;40.846;14.254;2024-03-08T02:52:53;23.00;;;16.58;;
86331;SDS011;76986;40.846;14.254;2024-03-08T02:55:19;23.65;;;17.08;;
86331;SDS011;76986;40.846;14.254;2024-03-08T02:57:45;25.35;;;17.85;;
86331;SDS011;76986;40.846;14.254;2024-03-08T03:00:15;27.38;;;17.60;;
86331;SDS011;76986;40.846;14.254;2024-03-08T03:02:41;35.38;;;17.40;;
86331;SDS011;76986;40.846;14.254;2024-03-08T03:05:07;26.33;;;17.08;;
86331;SDS011;76986;40.846;14.254;2024-03-08T03:07:35;25.65;;;16.55;;
86331;SDS011;76986;40.846;14.254;2024-03-08T03:10:01;25.02;;;16.98;;
86331;SDS011;76986;40.846;14.254;2024-03-08T03:12:27;25.17;;;16.77;;
86331;SDS011;76986;40.846;14.254;2024-03-08T03:14:54;25.13;;;16.73;;
86331;SDS011;76986;40.846;14.254;2024-03-08T03:17:21;24.50;;;17.52;;
86331;SDS011;76986;40.846;14.254;2024-03-08T03:19:48;22.02;;;16.25;;
86331;SDS011;76986;40.846;14.254;2024-03-08T03:22:14;23.77;;;15.90;;
86331;SDS011;76986;40.846;14.254;2024-03-08T03:24:40;19.63;;;14.40;;
86331;SDS011;76986;40.846;14.254;2024-03-08T03:27:07;22.30;;;15.30;;
86331;SDS011;76986;40.846;14.254;2024-03-08T03:29:37;20.23;;;13.80;;
86331;SDS011;76986;40.846;14.254;2024-03-08T03:32:03;30.90;;;16.08;;
86331;SDS011;76986;40.846;14.254;2024-03-08T03:34:29;23.10;;;16.00;;
86331;SDS011;76986;40.846;14.254;2024-03-08T03:36:55;18.25;;;13.35;;
86331;SDS011;76986;40.846;14.254;2024-03-08T03:39:22;20.42;;;13.77;;
86331;SDS011;76986;40.846;14.254;2024-03-08T03:41:48;21.75;;;13.98;;
86331;SDS011;76986;40.846;14.254;2024-03-08T03:44:17;18.95;;;14.20;;
86331;SDS011;76986;40.846;14.254;2024-03-08T03:46:43;18.58;;;14.05;;
86331;SDS011;76986;40.846;14.254;2024-03-08T03:49:09;24.10;;;14.15;;
86331;SDS011;76986;40.846;14.254;2024-03-08T03:51:35;17.60;;;13.10;;
86331;SDS011;76986;40.846;14.254;2024-03-08T03:54:01;17.98;;;12.63;;
86331;SDS011;76986;40.846;14.254;2024-03-08T03:56:28;19.52;;;12.05;;
86331;SDS011;76986;40.846;14.254;2024-03-08T03:58:55;17.02;;;11.90;;
86331;SDS011;76986;40.846;14.254;2024-03-08T04:01:21;15.38;;;11.18;;
86331;SDS011;76986;40.846;14.254;2024-03-08T04:03:49;15.02;;;11.35;;
86331;SDS011;76986;40.846;14.254;2024-03-08T04:06:15;15.82;;;11.07;;
86331;SDS011;76986;40.846;14.254;2024-03-08T04:08:41;19.33;;;12.02;;
86331;SDS011;76986;40.846;14.254;2024-03-08T04:11:07;17.05;;;10.57;;
86331;SDS011;76986;40.846;14.254;2024-03-08T04:13:36;17.20;;;10.65;;
86331;SDS011;76986;40.846;14.254;2024-03-08T04:16:02;15.52;;;9.30;;
86331;SDS011;76986;40.846;14.254;2024-03-08T04:18:33;12.27;;;9.38;;
86331;SDS011;76986;40.846;14.254;2024-03-08T04:21:01;12.88;;;8.60;;
86331;SDS011;76986;40.846;14.254;2024-03-08T04:23:27;12.35;;;9.13;;
86331;SDS011;76986;40.846;14.254;2024-03-08T04:25:53;12.18;;;9.43;;
86331;SDS011;76986;40.846;14.254;2024-03-08T04:28:19;14.32;;;9.35;;
86331;SDS011;76986;40.846;14.254;2024-03-08T04:30:45;14.13;;;9.35;;
86331;SDS011;76986;40.846;14.254;2024-03-08T04:33:11;14.27;;;9.60;;
86331;SDS011;76986;40.846;14.254;2024-03-08T04:35:39;16.65;;;9.68;;
86331;SDS011;76986;40.846;14.254;2024-03-08T04:38:05;17.65;;;10.32;;
86331;SDS011;76986;40.846;14.254;2024-03-08T04:40:31;17.17;;;11.10;;
86331;SDS011;76986;40.846;14.254;2024-03-08T04:42:57;16.67;;;10.98;;
86331;SDS011;76986;40.846;14.254;2024-03-08T04:45:24;16.73;;;11.48;;
86331;SDS011;76986;40.846;14.254;2024-03-08T04:47:53;15.75;;;10.68;;
86331;SDS011;76986;40.846;14.254;2024-03-08T04:50:19;21.05;;;12.23;;
86331;SDS011;76986;40.846;14.254;2024-03-08T04:52:45;16.85;;;12.77;;
86331;SDS011;76986;40.846;14.254;2024-03-08T04:55:12;22.95;;;12.48;;
86331;SDS011;76986;40.846;14.254;2024-03-08T04:57:38;16.65;;;11.30;;
86331;SDS011;76986;40.846;14.254;2024-03-08T05:00:04;17.10;;;12.60;;
86331;SDS011;76986;40.846;14.254;2024-03-08T05:02:36;17.75;;;12.40;;
86331;SDS011;76986;40.846;14.254;2024-03-08T05:05:04;19.38;;;12.35;;
86331;SDS011;76986;40.846;14.254;2024-03-08T05:07:31;16.63;;;9.48;;
86331;SDS011;76986;40.846;14.254;2024-03-08T05:09:58;16.73;;;10.45;;
86331;SDS011;76986;40.846;14.254;2024-03-08T05:12:24;14.75;;;10.02;;
86331;SDS011;76986;40.846;14.254;2024-03-08T05:14:51;14.40;;;8.55;;
86331;SDS011;76986;40.846;14.254;2024-03-08T05:17:17;11.43;;;8.18;;
86331;SDS011;76986;40.846;14.254;2024-03-08T05:19:43;10.57;;;8.32;;
86331;SDS011;76986;40.846;14.254;2024-03-08T05:22:09;13.25;;;7.97;;
86331;SDS011;76986;40.846;14.254;2024-03-08T05:24:35;10.75;;;8.68;;
86331;SDS011;76986;40.846;14.254;2024-03-08T05:27:01;15.80;;;9.57;;
86331;SDS011;76986;40.846;14.254;2024-03-08T05:29:28;11.75;;;7.82;;
86331;SDS011;76986;40.846;14.254;2024-03-08T05:31:54;11.98;;;7.75;;
86331;SDS011;76986;40.846;14.254;2024-03-08T05:34:22;13.55;;;8.75;;
86331;SDS011;76986;40.846;14.254;2024-03-08T05:36:50;10.85;;;7.78;;
86331;SDS011;76986;40.846;14.254;2024-03-08T05:39:16;20.27;;;9.55;;
86331;SDS011;76986;40.846;14.254;2024-03-08T05:41:43;12.90;;;8.48;;
86331;SDS011;76986;40.846;14.254;2024-03-08T05:44:11;14.82;;;7.95;;
86331;SDS011;76986;40.846;14.254;2024-03-08T05:46:37;12.98;;;7.07;;
86331;SDS011;76986;40.846;14.254;2024-03-08T05:49:03;13.38;;;8.27;;
86331;SDS011;76986;40.846;14.254;2024-03-08T05:51:35;13.52;;;8.32;;
86331;SDS011;76986;40.846;14.254;2024-03-08T05:54:04;10.93;;;8.02;;
86331;SDS011;76986;40.846;14.254;2024-03-08T05:56:31;17.42;;;7.72;;
86331;SDS011;76986;40.846;14.254;2024-03-08T05:58:57;16.65;;;8.65;;
86331;SDS011;76986;40.846;14.254;2024-03-08T06:01:24;19.50;;;9.57;;
86331;SDS011;76986;40.846;14.254;2024-03-08T06:03:51;13.35;;;8.43;;
86331;SDS011;76986;40.846;14.254;2024-03-08T06:06:19;11.27;;;8.82;;
86331;SDS011;76986;40.846;14.254;2024-03-08T06:08:46;13.50;;;7.75;;
86331;SDS011;76986;40.846;14.254;2024-03-08T06:11:14;14.43;;;8.45;;
86331;SDS011;76986;40.846;14.254;2024-03-08T06:13:40;12.25;;;8.02;;
86331;SDS011;76986;40.846;14.254;2024-03-08T06:16:06;14.27;;;7.38;;
86331;SDS011;76986;40.846;14.254;2024-03-08T06:18:33;17.85;;;9.88;;
86331;SDS011;76986;40.846;14.254;2024-03-08T06:21:02;12.75;;;8.00;;
86331;SDS011;76986;40.846;14.254;2024-03-08T06:23:29;10.98;;;8.95;;
86331;SDS011;76986;40.846;14.254;2024-03-08T06:25:56;11.32;;;7.38;;
86331;SDS011;76986;40.846;14.254;2024-03-08T06:28:22;15.05;;;7.38;;
86331;SDS011;76986;40.846;14.254;2024-03-08T06:30:48;13.02;;;7.28;;
86331;SDS011;76986;40.846;14.254;2024-03-08T06:33:16;14.18;;;7.15;;
86331;SDS011;76986;40.846;14.254;2024-03-08T06:35:42;19.55;;;6.72;;
86331;SDS011;76986;40.846;14.254;2024-03-08T06:38:09;11.52;;;6.03;;
86331;SDS011;76986;40.846;14.254;2024-03-08T06:40:36;12.05;;;5.45;;
86331;SDS011;76986;40.846;14.254;2024-03-08T06:43:02;15.65;;;7.22;;
86331;SDS011;76986;40.846;14.254;2024-03-08T06:45:31;13.57;;;6.15;;
86331;SDS011;76986;40.846;14.254;2024-03-08T06:47:57;11.30;;;5.28;;
86331;SDS011;76986;40.846;14.254;2024-03-08T06:50:23;11.93;;;5.50;;
86331;SDS011;76986;40.846;14.254;2024-03-08T06:52:49;15.32;;;4.88;;
86331;SDS011;76986;40.846;14.254;2024-03-08T06:55:19;12.75;;;5.07;;
86331;SDS011;76986;40.846;14.254;2024-03-08T06:57:46;7.65;;;3.92;;
86331;SDS011;76986;40.846;14.254;2024-03-08T07:00:12;8.75;;;4.63;;
86331;SDS011;76986;40.846;14.254;2024-03-08T07:02:46;9.02;;;4.78;;
86331;SDS011;76986;40.846;14.254;2024-03-08T07:05:18;6.97;;;4.60;;
86331;SDS011;76986;40.846;14.254;2024-03-08T07:07:44;9.07;;;4.88;;
86331;SDS011;76986;40.846;14.254;2024-03-08T07:10:13;8.80;;;5.30;;
86331;SDS011;76986;40.846;14.254;2024-03-08T07:12:40;6.78;;;4.85;;
86331;SDS011;76986;40.846;14.254;2024-03-08T07:15:07;5.25;;;3.92;;
86331;SDS011;76986;40.846;14.254;2024-03-08T07:17:38;8.18;;;4.47;;
86331;SDS011;76986;40.846;14.254;2024-03-08T07:20:05;10.55;;;4.35;;
86331;SDS011;76986;40.846;14.254;2024-03-08T07:22:32;9.95;;;4.38;;
86331;SDS011;76986;40.846;14.254;2024-03-08T07:24:58;10.10;;;4.30;;
86331;SDS011;76986;40.846;14.254;2024-03-08T07:27:43;8.80;;;4.20;;
86331;SDS011;76986;40.846;14.254;2024-03-08T07:30:11;9.70;;;4.15;;
86331;SDS011;76986;40.846;14.254;2024-03-08T07:32:37;10.65;;;5.78;;
86331;SDS011;76986;40.846;14.254;2024-03-08T07:35:03;10.30;;;4.40;;
86331;SDS011;76986;40.846;14.254;2024-03-08T07:37:30;7.80;;;4.55;;
86331;SDS011;76986;40.846;14.254;2024-03-08T07:39:56;8.07;;;3.80;;
86331;SDS011;76986;40.846;14.254;2024-03-08T07:42:23;10.88;;;4.95;;
86331;SDS011;76986;40.846;14.254;2024-03-08T07:44:49;9.43;;;3.70;;
86331;SDS011;76986;40.846;14.254;2024-03-08T07:47:15;9.25;;;3.75;;
86331;SDS011;76986;40.846;14.254;2024-03-08T07:49:43;5.65;;;3.40;;
86331;SDS011;76986;40.846;14.254;2024-03-08T07:52:09;5.90;;;3.85;;
86331;SDS011;76986;40.846;14.254;2024-03-08T07:54:40;8.88;;;3.55;;
86331;SDS011;76986;40.846;14.254;2024-03-08T07:57:06;8.27;;;4.57;;
86331;SDS011;76986;40.846;14.254;2024-03-08T07:59:32;8.10;;;3.85;;
86331;SDS011;76986;40.846;14.254;2024-03-08T08:01:58;5.63;;;3.50;;
86331;SDS011;76986;40.846;14.254;2024-03-08T08:04:24;9.48;;;3.30;;
86331;SDS011;76986;40.846;14.254;2024-03-08T08:06:51;9.55;;;2.95;;
86331;SDS011;76986;40.846;14.254;2024-03-08T08:09:19;6.55;;;2.90;;
86331;SDS011;76986;40.846;14.254;2024-03-08T08:11:54;4.70;;;3.40;;
86331;SDS011;76986;40.846;14.254;2024-03-08T08:14:20;7.38;;;2.63;;
86331;SDS011;76986;40.846;14.254;2024-03-08T08:16:49;4.13;;;2.15;;
86331;SDS011;76986;40.846;14.254;2024-03-08T08:19:17;2.88;;;1.83;;
86331;SDS011;76986;40.846;14.254;2024-03-08T08:21:43;7.50;;;3.05;;
86331;SDS011;76986;40.846;14.254;2024-03-08T08:24:10;3.40;;;2.75;;
86331;SDS011;76986;40.846;14.254;2024-03-08T08:26:36;7.13;;;4.65;;
86331;SDS011;76986;40.846;14.254;2024-03-08T08:29:02;5.30;;;2.92;;
86331;SDS011;76986;40.846;14.254;2024-03-08T08:31:28;2.72;;;2.42;;
86331;SDS011;76986;40.846;14.254;2024-03-08T08:33:54;5.13;;;2.30;;
86331;SDS011;76986;40.846;14.254;2024-03-08T08:36:26;4.88;;;2.17;;
86331;SDS011;76986;40.846;14.254;2024-03-08T08:38:54;4.38;;;2.65;;
86331;SDS011;76986;40.846;14.254;2024-03-08T08:41:22;4.18;;;1.90;;
86331;SDS011;76986;40.846;14.254;2024-03-08T08:43:48;2.72;;;1.38;;
86331;SDS011;76986;40.846;14.254;2024-03-08T08:46:18;4.72;;;1.80;;
86331;SDS011;76986;40.846;14.254;2024-03-08T08:48:44;4.72;;;1.85;;
86331;SDS011;76986;40.846;14.254;2024-03-08T08:51:11;6.28;;;2.78;;
86331;SDS011;76986;40.846;14.254;2024-03-08T08:53:38;4.20;;;1.55;;
86331;SDS011;76986;40.846;14.254;2024-03-08T08:56:10;1.95;;;1.30;;
86331;SDS011;76986;40.846;14.254;2024-03-08T08:58:38;3.50;;;1.20;;
86331;SDS011;76986;40.846;14.254;2024-03-08T09:03:32;5.95;;;3.10;;
86331;SDS011;76986;40.846;14.254;2024-03-08T09:06:00;5.22;;;1.70;;
86331;SDS011;76986;40.846;14.254;2024-03-08T09:08:27;1.13;;;0.60;;
86331;SDS011;76986;40.846;14.254;2024-03-08T09:10:53;2.67;;;0.80;;
86331;SDS011;76986;40.846;14.254;2024-03-08T09:13:19;3.03;;;0.70;;
86331;SDS011;76986;40.846;14.254;2024-03-08T09:15:46;2.55;;;1.75;;
86331;SDS011;76986;40.846;14.254;2024-03-08T09:18:12;3.47;;;1.60;;
86331;SDS011;76986;40.846;14.254;2024-03-08T09:20:38;2.65;;;1.35;;
86331;SDS011;76986;40.846;14.254;2024-03-08T09:25:33;2.70;;;1.17;;
86331;SDS011;76986;40.846;14.254;2024-03-08T09:27:59;2.20;;;1.20;;
86331;SDS011;76986;40.846;14.254;2024-03-08T09:30:25;4.68;;;1.30;;
86331;SDS011;76986;40.846;14.254;2024-03-08T09:32:51;2.30;;;1.10;;
86331;SDS011;76986;40.846;14.254;2024-03-08T09:35:17;2.25;;;1.00;;
86331;SDS011;76986;40.846;14.254;2024-03-08T09:37:43;3.85;;;1.70;;
86331;SDS011;76986;40.846;14.254;2024-03-08T09:40:12;2.60;;;1.42;;
86331;SDS011;76986;40.846;14.254;2024-03-08T09:42:40;2.80;;;1.70;;
86331;SDS011;76986;40.846;14.254;2024-03-08T09:45:10;3.03;;;1.17;;
86331;SDS011;76986;40.846;14.254;2024-03-08T09:47:40;3.42;;;1.10;;
86331;SDS011;76986;40.846;14.254;2024-03-08T09:50:07;3.85;;;1.27;;
86331;SDS011;76986;40.846;14.254;2024-03-08T09:52:41;3.17;;;1.55;;
86331;SDS011;76986;40.846;14.254;2024-03-08T09:55:09;2.53;;;1.02;;
86331;SDS011;76986;40.846;14.254;2024-03-08T09:57:41;2.80;;;0.90;;
86331;SDS011;76986;40.846;14.254;2024-03-08T10:00:28;4.03;;;1.13;;
86331;SDS011;76986;40.846;14.254;2024-03-08T10:03:00;1.25;;;0.98;;
86331;SDS011;76986;40.846;14.254;2024-03-08T10:05:26;1.90;;;1.20;;
86331;SDS011;76986;40.846;14.254;2024-03-08T10:07:52;2.70;;;1.17;;
86331;SDS011;76986;40.846;14.254;2024-03-08T10:10:18;1.88;;;0.80;;
86331;SDS011;76986;40.846;14.254;2024-03-08T10:12:45;2.28;;;1.08;;
86331;SDS011;76986;40.846;14.254;2024-03-08T10:15:12;2.08;;;0.90;;
86331;SDS011;76986;40.846;14.254;2024-03-08T10:17:41;3.13;;;0.93;;
86331;SDS011;76986;40.846;14.254;2024-03-08T10:20:15;2.67;;;0.90;;
86331;SDS011;76986;40.846;14.254;2024-03-08T10:22:41;3.50;;;0.80;;
86331;SDS011;76986;40.846;14.254;2024-03-08T10:25:10;2.45;;;0.98;;
86331;SDS011;76986;40.846;14.254;2024-03-08T10:27:37;1.38;;;0.80;;
86331;SDS011;76986;40.846;14.254;2024-03-08T10:30:04;3.05;;;1.40;;
86331;SDS011;76986;40.846;14.254;2024-03-08T10:32:33;4.07;;;1.35;;
86331;SDS011;76986;40.846;14.254;2024-03-08T10:34:59;2.60;;;0.77;;
86331;SDS011;76986;40.846;14.254;2024-03-08T10:37:25;3.00;;;1.05;;
86331;SDS011;76986;40.846;14.254;2024-03-08T10:40:03;2.53;;;0.70;;
86331;SDS011;76986;40.846;14.254;2024-03-08T10:42:35;2.70;;;1.35;;
86331;SDS011;76986;40.846;14.254;2024-03-08T10:50:38;3.42;;;0.90;;
86331;SDS011;76986;40.846;14.254;2024-03-08T10:53:04;1.73;;;1.25;;
86331;SDS011;76986;40.846;14.254;2024-03-08T10:55:32;4.25;;;0.90;;
86331;SDS011;76986;40.846;14.254;2024-03-08T10:57:59;2.85;;;1.27;;
86331;SDS011;76986;40.846;14.254;2024-03-08T11:00:25;2.00;;;0.90;;
86331;SDS011;76986;40.846;14.254;2024-03-08T11:02:52;1.50;;;0.90;;
86331;SDS011;76986;40.846;14.254;2024-03-08T11:08:16;2.80;;;1.08;;
86331;SDS011;76986;40.846;14.254;2024-03-08T11:10:52;2.45;;;1.25;;
86331;SDS011;76986;40.846;14.254;2024-03-08T11:13:36;2.28;;;1.08;;
86331;SDS011;76986;40.846;14.254;2024-03-08T11:16:06;4.40;;;1.10;;
86331;SDS011;76986;40.846;14.254;2024-03-08T11:18:34;0.95;;;0.73;;
86331;SDS011;76986;40.846;14.254;2024-03-08T11:21:04;1.73;;;0.80;;
86331;SDS011;76986;40.846;14.254;2024-03-08T11:23:37;1.83;;;0.82;;
86331;SDS011;76986;40.846;14.254;2024-03-08T11:28:32;4.18;;;1.23;;
86331;SDS011;76986;40.846;14.254;2024-03-08T11:33:28;4.82;;;0.90;;
86331;SDS011;76986;40.846;14.254;2024-03-08T11:38:39;2.92;;;1.50;;
86331;SDS011;76986;40.846;14.254;2024-03-08T11:41:06;3.20;;;1.05;;
86331;SDS011;76986;40.846;14.254;2024-03-08T11:43:33;2.75;;;1.02;;
86331;SDS011;76986;40.846;14.254;2024-03-08T11:46:13;1.77;;;1.00;;
86331;SDS011;76986;40.846;14.254;2024-03-08T11:48:39;2.00;;;1.15;;
86331;SDS011;76986;40.846;14.254;2024-03-08T11:51:08;2.08;;;0.95;;
86331;SDS011;76986;40.846;14.254;2024-03-08T11:56:09;1.95;;;0.98;;
86331;SDS011;76986;40.846;14.254;2024-03-08T11:58:36;2.65;;;1.30;;
86331;SDS011;76986;40.846;14.254;2024-03-08T12:01:03;3.10;;;1.08;;
86331;SDS011;76986;40.846;14.254;2024-03-08T12:03:30;2.65;;;0.90;;
86331;SDS011;76986;40.846;14.254;2024-03-08T12:05:59;3.38;;;1.40;;
86331;SDS011;76986;40.846;14.254;2024-03-08T12:08:25;3.08;;;1.05;;
86331;SDS011;76986;40.846;14.254;2024-03-08T12:10:54;6.65;;;1.40;;
86331;SDS011;76986;40.846;14.254;2024-03-08T12:13:27;5.18;;;1.33;;
86331;SDS011;76986;40.846;14.254;2024-03-08T12:16:00;2.72;;;1.33;;
86331;SDS011;76986;40.846;14.254;2024-03-08T12:21:07;4.00;;;1.20;;
86331;SDS011;76986;40.846;14.254;2024-03-08T12:23:36;3.25;;;1.38;;
86331;SDS011;76986;40.846;14.254;2024-03-08T12:26:17;6.05;;;1.65;;
86331;SDS011;76986;40.846;14.254;2024-03-08T12:28:44;3.42;;;1.02;;
86331;SDS011;76986;40.846;14.254;2024-03-08T12:31:13;3.45;;;1.58;;
86331;SDS011;76986;40.846;14.254;2024-03-08T12:33:54;3.83;;;1.35;;
86331;SDS011;76986;40.846;14.254;2024-03-08T12:36:24;3.10;;;1.02;;
86331;SDS011;76986;40.846;14.254;2024-03-08T12:38:50;4.10;;;1.45;;
86331;SDS011;76986;40.846;14.254;2024-03-08T12:41:17;3.58;;;1.30;;
86331;SDS011;76986;40.846;14.254;2024-03-08T12:43:46;3.10;;;1.17;;
86331;SDS011;76986;40.846;14.254;2024-03-08T12:46:16;4.28;;;1.90;;
86331;SDS011;76986;40.846;14.254;2024-03-08T12:48:42;1.73;;;0.90;;
86331;SDS011;76986;40.846;14.254;2024-03-08T12:51:12;2.55;;;0.93;;
86331;SDS011;76986;40.846;14.254;2024-03-08T12:53:38;2.13;;;1.02;;
86331;SDS011;76986;40.846;14.254;2024-03-08T12:56:09;2.17;;;1.10;;
86331;SDS011;76986;40.846;14.254;2024-03-08T12:58:36;1.10;;;0.88;;
86331;SDS011;76986;40.846;14.254;2024-03-08T13:01:03;1.38;;;0.85;;
86331;SDS011;76986;40.846;14.254;2024-03-08T13:03:37;2.47;;;1.35;;
86331;SDS011;76986;40.846;14.254;2024-03-08T13:06:05;2.78;;;1.20;;
86331;SDS011;76986;40.846;14.254;2024-03-08T13:08:34;2.35;;;0.90;;
86331;SDS011;76986;40.846;14.254;2024-03-08T13:11:01;2.67;;;1.08;;
86331;SDS011;76986;40.846;14.254;2024-03-08T13:13:28;2.03;;;0.75;;
86331;SDS011;76986;40.846;14.254;2024-03-08T13:15:54;5.32;;;0.90;;
86331;SDS011;76986;40.846;14.254;2024-03-08T13:18:21;3.78;;;1.27;;
86331;SDS011;76986;40.846;14.254;2024-03-08T13:20:48;3.88;;;1.40;;
86331;SDS011;76986;40.846;14.254;2024-03-08T13:23:17;1.92;;;1.60;;
86331;SDS011;76986;40.846;14.254;2024-03-08T13:25:43;1.85;;;1.02;;
86331;SDS011;76986;40.846;14.254;2024-03-08T13:28:09;2.75;;;1.10;;
86331;SDS011;76986;40.846;14.254;2024-03-08T13:30:36;2.03;;;1.60;;
86331;SDS011;76986;40.846;14.254;2024-03-08T13:33:02;4.43;;;1.00;;
86331;SDS011;76986;40.846;14.254;2024-03-08T13:35:32;2.65;;;0.88;;
86331;SDS011;76986;40.846;14.254;2024-03-08T13:37:59;2.25;;;1.13;;
86331;SDS011;76986;40.846;14.254;2024-03-08T13:40:28;2.53;;;0.98;;
86331;SDS011;76986;40.846;14.254;2024-03-08T13:42:56;2.53;;;1.05;;
86331;SDS011;76986;40.846;14.254;2024-03-08T13:45:23;2.13;;;1.33;;
86331;SDS011;76986;40.846;14.254;2024-03-08T13:47:49;3.22;;;1.48;;
86331;SDS011;76986;40.846;14.254;2024-03-08T13:50:19;4.60;;;1.50;;
86331;SDS011;76986;40.846;14.254;2024-03-08T13:52:49;3.17;;;1.05;;
86331;SDS011;76986;40.846;14.254;2024-03-08T13:55:19;1.63;;;1.08;;
86331;SDS011;76986;40.846;14.254;2024-03-08T13:57:45;3.00;;;1.30;;
86331;SDS011;76986;40.846;14.254;2024-03-08T14:00:12;4.25;;;1.92;;
86331;SDS011;76986;40.846;14.254;2024-03-08T14:02:38;3.05;;;1.38;;
86331;SDS011;76986;40.846;14.254;2024-03-08T14:05:06;4.05;;;1.20;;
86331;SDS011;76986;40.846;14.254;2024-03-08T14:07:34;2.80;;;1.27;;
86331;SDS011;76986;40.846;14.254;2024-03-08T14:10:00;2.67;;;1.35;;
86331;SDS011;76986;40.846;14.254;2024-03-08T14:12:26;2.70;;;1.15;;
86331;SDS011;76986;40.846;14.254;2024-03-08T14:14:53;2.80;;;1.10;;
86331;SDS011;76986;40.846;14.254;2024-03-08T14:17:19;2.97;;;0.93;;
86331;SDS011;76986;40.846;14.254;2024-03-08T14:19:45;2.10;;;1.15;;
86331;SDS011;76986;40.846;14.254;2024-03-08T14:22:11;5.57;;;1.52;;
86331;SDS011;76986;40.846;14.254;2024-03-08T14:24:39;5.30;;;1.95;;
86331;SDS011;76986;40.846;14.254;2024-03-08T14:27:07;2.90;;;1.02;;
86331;SDS011;76986;40.846;14.254;2024-03-08T14:32:00;2.65;;;1.20;;
86331;SDS011;76986;40.846;14.254;2024-03-08T14:34:28;3.05;;;1.38;;
86331;SDS011;76986;40.846;14.254;2024-03-08T14:36:55;5.38;;;1.60;;
86331;SDS011;76986;40.846;14.254;2024-03-08T14:39:21;4.40;;;1.38;;
86331;SDS011;76986;40.846;14.254;2024-03-08T14:41:51;3.33;;;1.52;;
86331;SDS011;76986;40.846;14.254;2024-03-08T14:44:21;3.25;;;1.42;;
86331;SDS011;76986;40.846;14.254;2024-03-08T14:46:53;5.68;;;2.35;;
86331;SDS011;76986;40.846;14.254;2024-03-08T14:49:20;5.18;;;1.10;;
86331;SDS011;76986;40.846;14.254;2024-03-08T14:51:46;3.28;;;1.60;;
86331;SDS011;76986;40.846;14.254;2024-03-08T14:54:12;2.42;;;1.02;;